createdAt,value
2022-09-10T00:00:41.675Z,15.97
2022-09-10T00:03:45.361Z,16.01
2022-09-10T00:06:49.118Z,16.08
2022-09-10T00:09:52.736Z,16.05
2022-09-10T00:12:56.945Z,16.11
2022-09-10T00:16:03.881Z,16.33
2022-09-10T00:19:08.769Z,16.41
2022-09-10T00:22:13.700Z,16.39
2022-09-10T00:25:16.986Z,16.50
2022-09-10T00:28:24.723Z,16.65
2022-09-10T00:31:30.408Z,16.83
2022-09-10T00:34:34.905Z,17.00
2022-09-10T00:37:38.196Z,17.06
2022-09-10T00:40:42.542Z,17.20
2022-09-10T00:43:50.783Z,17.39
2022-09-10T00:46:56.764Z,17.43
2022-09-10T00:50:03.837Z,17.48
2022-09-10T00:53:14.087Z,17.53
2022-09-10T00:56:18.107Z,17.62
2022-09-10T00:59:24.210Z,17.79
2022-09-10T01:02:28.637Z,17.72
2022-09-10T01:05:34.548Z,17.88
2022-09-10T01:08:38.376Z,17.98
2022-09-10T01:12:04.640Z,18.34
2022-09-10T01:15:36.387Z,18.62
2022-09-10T01:19:01.081Z,19.09
2022-09-10T01:22:24.572Z,19.33
2022-09-10T01:25:46.135Z,19.82
2022-09-10T01:29:03.295Z,20.13
2022-09-10T01:32:19.364Z,20.62
2022-09-10T01:35:42.035Z,20.14
2022-09-10T01:38:47.767Z,19.41
2022-09-10T01:41:55.053Z,19.15
2022-09-10T01:45:02.844Z,19.23
2022-09-10T01:48:26.475Z,20.78
2022-09-10T01:52:07.694Z,21.93
2022-09-10T01:55:30.621Z,22.27
2022-09-10T01:58:44.736Z,22.77
2022-09-10T02:02:17.639Z,22.96
2022-09-10T02:05:24.978Z,22.93
2022-09-10T02:08:38.116Z,22.71
2022-09-10T02:11:52.796Z,22.49
2022-09-10T02:15:14.955Z,23.43
2022-09-10T02:18:35.375Z,24.29
2022-09-10T02:21:40.013Z,24.56
2022-09-10T02:24:45.247Z,24.79
2022-09-10T02:27:49.511Z,25.31
2022-09-10T02:30:53.353Z,25.66
2022-09-10T02:33:57.275Z,26.07
2022-09-10T02:37:05.188Z,26.59
2022-09-10T02:40:12.060Z,26.75
2022-09-10T02:43:18.143Z,26.95
2022-09-10T02:46:22.123Z,27.55
2022-09-10T02:49:26.682Z,28.17
2022-09-10T02:52:31.504Z,28.82
2022-09-10T02:55:36.407Z,28.18
2022-09-10T02:58:42.315Z,28.01
2022-09-10T03:01:46.480Z,27.82
2022-09-10T03:04:50.316Z,27.98
2022-09-10T03:07:56.601Z,27.69
2022-09-10T03:11:00.488Z,25.69
2022-09-10T03:14:04.932Z,24.81
2022-09-10T03:17:09.182Z,25.02
2022-09-10T03:20:13.226Z,24.74
2022-09-10T03:23:17.528Z,24.40
2022-09-10T03:26:26.192Z,23.98
2022-09-10T03:29:30.802Z,23.50
2022-09-10T03:32:36.040Z,22.84
2022-09-10T03:35:40.942Z,22.71
2022-09-10T03:38:44.322Z,22.92
2022-09-10T03:41:48.580Z,23.32
2022-09-10T03:44:52.868Z,23.90
2022-09-10T03:47:56.557Z,23.96
2022-09-10T03:51:00.883Z,23.73
2022-09-10T03:54:06.675Z,24.12
2022-09-10T03:57:10.485Z,23.99
2022-09-10T04:00:14.031Z,24.19
2022-09-10T04:03:21.394Z,24.22
2022-09-10T04:06:25.326Z,23.87
2022-09-10T04:09:28.809Z,23.67
2022-09-10T04:12:33.712Z,23.17
2022-09-10T04:15:40.772Z,22.69
2022-09-10T04:18:44.196Z,22.58
2022-09-10T04:21:53.857Z,22.48
2022-09-10T04:24:57.106Z,22.42
2022-09-10T04:28:02.773Z,22.27
2022-09-10T04:31:08.130Z,22.20
2022-09-10T04:34:11.869Z,22.46
2022-09-10T04:37:19.253Z,22.80
2022-09-10T04:40:23.778Z,22.93
2022-09-10T04:43:28.569Z,22.95
2022-09-10T04:46:31.773Z,23.06
2022-09-10T04:49:37.081Z,23.22
2022-09-10T04:52:46.089Z,23.47
2022-09-10T04:55:50.495Z,23.56
2022-09-10T04:58:53.978Z,23.44
2022-09-10T05:01:57.685Z,23.20
2022-09-10T05:05:01.733Z,23.12
2022-09-10T05:08:07.998Z,23.18
2022-09-10T05:11:12.047Z,23.43
2022-09-10T05:14:16.023Z,23.58
2022-09-10T05:17:20.617Z,23.85
2022-09-10T05:20:24.662Z,23.68
2022-09-10T05:23:29.699Z,23.40
2022-09-10T05:26:36.241Z,23.59
2022-09-10T05:29:39.279Z,23.75
2022-09-10T05:32:43.539Z,23.27
2022-09-10T05:35:52.107Z,23.50
2022-09-10T05:39:00.323Z,23.91
2022-09-10T05:42:07.492Z,24.27
2022-09-10T05:45:13.762Z,24.76
2022-09-10T05:48:19.582Z,24.71
2022-09-10T05:51:28.753Z,25.13
2022-09-10T05:54:37.267Z,24.87
2022-09-10T05:57:41.130Z,25.22
2022-09-10T06:00:51.678Z,26.23
2022-09-10T06:03:57.179Z,26.58
2022-09-10T06:07:02.391Z,26.80
2022-09-10T06:10:06.664Z,26.68
2022-09-10T06:13:16.552Z,25.92
2022-09-10T06:16:20.473Z,26.27
2022-09-10T06:19:24.474Z,26.53
2022-09-10T06:22:28.641Z,25.76
2022-09-10T06:25:32.477Z,25.30
2022-09-10T06:28:36.469Z,25.00
2022-09-10T06:31:42.078Z,24.95
2022-09-10T06:34:45.424Z,25.02
2022-09-10T06:37:49.636Z,24.91
2022-09-10T06:41:00.948Z,24.36
2022-09-10T06:44:12.120Z,24.05
2022-09-10T06:50:54.021Z,24.39
2022-09-10T06:54:03.322Z,24.34
2022-09-10T06:57:08.618Z,24.80
2022-09-10T07:00:12.850Z,24.41
2022-09-10T07:03:20.275Z,23.68
2022-09-10T07:06:25.472Z,23.63
2022-09-10T07:09:34.949Z,23.45
2022-09-10T07:12:39.351Z,23.67
2022-09-10T07:15:47.382Z,23.61
2022-09-10T07:18:55.107Z,23.13
2022-09-10T07:22:04.302Z,23.03
2022-09-10T07:25:10.461Z,22.86
2022-09-10T07:28:35.055Z,22.81
2022-09-10T07:34:48.104Z,22.82
2022-09-10T07:37:52.431Z,23.23
2022-09-10T07:41:01.093Z,23.25
2022-09-10T07:44:04.969Z,23.01
2022-09-10T07:47:14.418Z,22.83
2022-09-10T07:50:20.151Z,22.60
2022-09-10T07:53:27.158Z,22.27
2022-09-10T07:56:32.466Z,21.85
2022-09-10T07:59:37.654Z,21.63
2022-09-10T08:02:45.652Z,21.75
2022-09-10T08:05:53.910Z,21.64
2022-09-10T08:08:58.049Z,21.70
2022-09-10T08:12:01.574Z,21.64
2022-09-10T08:15:08.230Z,21.55
2022-09-10T08:18:14.270Z,21.47
2022-09-10T08:21:18.797Z,21.30
2022-09-10T08:24:24.012Z,20.79
2022-09-10T08:27:27.676Z,20.69
2022-09-10T08:30:32.676Z,20.73
2022-09-10T08:33:41.447Z,20.64
2022-09-10T08:36:44.646Z,20.53
2022-09-10T08:39:48.172Z,20.45
2022-09-10T08:42:53.829Z,20.40
2022-09-10T08:46:03.219Z,20.41
2022-09-10T08:49:15.508Z,20.51
2022-09-10T08:52:30.756Z,20.34
2022-09-10T08:55:38.499Z,20.17
2022-09-10T08:59:03.543Z,20.13
2022-09-10T09:02:44.694Z,20.08
2022-09-10T09:06:28.270Z,19.97
2022-09-10T09:09:33.228Z,19.68
2022-09-10T09:13:13.964Z,19.59
2022-09-10T09:16:53.907Z,19.53
2022-09-10T09:20:16.214Z,19.42
2022-09-10T09:23:30.592Z,19.38
2022-09-10T09:26:37.911Z,19.46
2022-09-10T09:29:57.300Z,19.43
2022-09-10T09:33:27.228Z,19.38
2022-09-10T09:36:38.349Z,19.11
2022-09-10T09:39:42.545Z,18.83
2022-09-10T09:42:53.655Z,18.71
2022-09-10T09:46:00.062Z,18.56
2022-09-10T09:49:16.674Z,18.56
2022-09-10T09:52:27.520Z,18.45
2022-09-10T09:55:42.371Z,18.38
2022-09-10T09:58:50.086Z,18.29
2022-09-10T10:01:55.298Z,18.22
2022-09-10T10:05:08.026Z,18.21
2022-09-10T10:08:31.415Z,18.21
2022-09-10T10:11:49.474Z,18.20
2022-09-10T10:14:53.163Z,18.05
2022-09-10T10:17:57.239Z,18.00
2022-09-10T10:21:15.981Z,18.06
2022-09-10T10:24:35.026Z,18.08
2022-09-10T10:27:45.903Z,17.98
2022-09-10T10:30:55.426Z,17.93
2022-09-10T10:34:10.788Z,17.80
2022-09-10T10:37:34.831Z,17.73
2022-09-10T10:40:49.158Z,17.63
2022-09-10T10:44:46.883Z,17.55
2022-09-10T10:48:17.925Z,17.57
2022-09-10T10:51:39.246Z,17.60
2022-09-10T10:54:59.588Z,17.42
2022-09-10T10:58:26.434Z,17.29
2022-09-10T11:01:35.647Z,17.26
2022-09-10T11:04:42.274Z,17.20
2022-09-10T11:07:47.206Z,17.19
2022-09-10T11:10:57.152Z,17.15
2022-09-10T11:14:36.731Z,17.11
2022-09-10T11:17:49.773Z,17.10
2022-09-10T11:21:30.474Z,17.06
2022-09-10T11:24:55.419Z,17.01
2022-09-10T11:28:11.467Z,16.97
2022-09-10T11:31:44.346Z,16.97
2022-09-10T11:35:17.663Z,16.94
2022-09-10T11:38:33.512Z,16.91
2022-09-10T11:41:42.618Z,16.87
2022-09-10T11:45:00.471Z,16.79
2022-09-10T11:48:38.409Z,16.81
2022-09-10T11:51:42.666Z,16.72
2022-09-10T11:54:49.598Z,16.73
2022-09-10T11:58:03.063Z,16.73
2022-09-10T12:01:20.885Z,16.71
2022-09-10T12:04:59.578Z,16.69
2022-09-10T12:08:18.145Z,16.55
2022-09-10T12:11:22.166Z,16.46
2022-09-10T12:14:25.760Z,16.50
2022-09-10T12:17:37.375Z,16.54
2022-09-10T12:20:54.627Z,16.57
2022-09-10T12:23:59.574Z,16.50
2022-09-10T12:27:05.748Z,16.46
2022-09-10T12:30:31.928Z,16.47
2022-09-10T12:33:45.798Z,16.46
2022-09-10T12:36:49.870Z,16.47
2022-09-10T12:40:33.121Z,16.46
2022-09-10T12:43:42.907Z,16.44
2022-09-10T12:46:46.410Z,16.42
2022-09-10T12:49:58.071Z,16.39
2022-09-10T12:53:26.239Z,16.42
2022-09-10T12:57:09.075Z,16.38
2022-09-10T13:00:18.476Z,16.30
2022-09-10T13:03:25.175Z,16.31
2022-09-10T13:06:43.223Z,16.39
2022-09-10T13:09:57.374Z,16.25
2022-09-10T13:13:08.093Z,16.29
2022-09-10T13:16:20.003Z,16.25
2022-09-10T13:19:22.963Z,16.24
2022-09-10T13:22:53.391Z,16.26
2022-09-10T13:26:32.251Z,16.20
2022-09-10T13:29:41.216Z,16.08
2022-09-10T13:32:52.695Z,16.00
2022-09-10T13:36:06.490Z,15.97
2022-09-10T13:39:32.127Z,15.97
2022-09-10T13:43:00.672Z,15.94
2022-09-10T13:46:12.052Z,15.80
2022-09-10T13:49:23.797Z,15.80
2022-09-10T13:52:37.579Z,15.87
2022-09-10T13:55:49.763Z,15.82
2022-09-10T13:59:02.625Z,15.80
2022-09-10T14:02:06.818Z,15.65
2022-09-10T14:05:34.538Z,15.62
2022-09-10T14:09:02.838Z,15.56
2022-09-10T14:12:08.949Z,15.57
2022-09-10T14:15:19.614Z,15.66
2022-09-10T14:18:32.448Z,15.73
2022-09-10T14:21:36.107Z,15.71
2022-09-10T14:24:39.022Z,15.67
2022-09-10T14:27:44.771Z,15.64
2022-09-10T14:30:50.267Z,15.65
2022-09-10T14:33:56.844Z,15.65
2022-09-10T14:37:01.903Z,15.65
2022-09-10T14:40:29.158Z,15.68
2022-09-10T14:43:39.410Z,15.64
2022-09-10T14:47:08.877Z,15.60
2022-09-10T14:50:35.226Z,15.60
2022-09-10T14:53:40.566Z,15.53
2022-09-10T14:56:46.996Z,15.52
2022-09-10T14:59:55.277Z,15.43
2022-09-10T15:03:01.205Z,15.40
2022-09-10T15:06:05.003Z,15.38
2022-09-10T15:09:08.698Z,15.26
2022-09-10T15:12:23.874Z,15.33
2022-09-10T15:15:29.117Z,15.28
2022-09-10T15:18:33.080Z,15.25
2022-09-10T15:21:36.791Z,15.21
2022-09-10T15:24:59.021Z,15.13
2022-09-10T15:28:04.930Z,15.16
2022-09-10T15:31:09.730Z,15.16
2022-09-10T15:34:13.578Z,15.16
2022-09-10T15:37:17.662Z,15.05
2022-09-10T15:40:21.397Z,14.92
2022-09-10T15:43:27.562Z,14.82
2022-09-10T15:46:31.186Z,14.66
2022-09-10T15:49:36.195Z,14.55
2022-09-10T15:52:39.996Z,14.46
2022-09-10T15:55:44.117Z,14.38
2022-09-10T15:58:57.789Z,14.36
2022-09-10T16:02:01.277Z,14.26
2022-09-10T16:05:06.520Z,14.14
2022-09-10T16:08:09.888Z,14.09
2022-09-10T16:11:12.856Z,14.16
2022-09-10T16:14:17.582Z,14.15
2022-09-10T16:17:21.593Z,14.16
2022-09-10T16:20:25.847Z,14.12
2022-09-10T16:23:29.795Z,14.09
2022-09-10T16:26:36.847Z,14.02
2022-09-10T16:29:43.991Z,13.92
2022-09-10T16:32:48.315Z,13.92
2022-09-10T16:35:51.929Z,13.88
2022-09-10T16:38:58.036Z,13.88
2022-09-10T16:42:01.306Z,13.84
2022-09-10T16:45:05.642Z,13.82
2022-09-10T16:48:10.062Z,13.83
2022-09-10T16:51:20.536Z,13.85
2022-09-10T16:54:27.134Z,13.81
2022-09-10T16:57:31.269Z,13.77
2022-09-10T17:00:35.289Z,13.73
2022-09-10T17:03:42.628Z,13.73
2022-09-10T17:06:46.973Z,13.69
2022-09-10T17:09:51.153Z,13.71
2022-09-10T17:12:54.418Z,13.68
2022-09-10T17:16:22.203Z,13.70
2022-09-10T17:19:26.895Z,13.61
2022-09-10T17:22:30.514Z,13.59
2022-09-10T17:25:34.344Z,13.52
2022-09-10T17:28:39.110Z,13.39
2022-09-10T17:31:44.449Z,13.34
2022-09-10T17:34:48.379Z,13.37
2022-09-10T17:37:52.615Z,13.42
2022-09-10T17:41:06.318Z,13.31
2022-09-10T17:44:11.814Z,13.24
2022-09-10T17:47:15.529Z,13.26
2022-09-10T17:50:19.227Z,13.19
2022-09-10T17:53:22.916Z,13.08
2022-09-10T17:56:27.901Z,12.98
2022-09-10T17:59:31.782Z,12.86
2022-09-10T18:02:35.185Z,12.83
2022-09-10T18:05:43.319Z,12.76
2022-09-10T18:08:47.293Z,12.70
2022-09-10T18:11:50.606Z,12.74
2022-09-10T18:14:54.590Z,12.73
2022-09-10T18:18:01.925Z,12.73
2022-09-10T18:21:20.514Z,12.71
2022-09-10T18:24:24.696Z,12.64
2022-09-10T18:27:28.779Z,12.65
2022-09-10T18:30:31.833Z,12.60
2022-09-10T18:33:40.384Z,12.52
2022-09-10T18:36:44.526Z,12.53
2022-09-10T18:39:48.814Z,12.47
2022-09-10T18:42:52.906Z,12.45
2022-09-10T18:45:56.829Z,12.45
2022-09-10T18:49:01.405Z,12.43
2022-09-10T18:52:07.090Z,12.37
2022-09-10T18:55:11.490Z,12.24
2022-09-10T18:58:15.105Z,12.09
2022-09-10T19:01:20.046Z,12.06
2022-09-10T19:04:26.943Z,11.94
2022-09-10T19:07:30.709Z,11.88
2022-09-10T19:10:34.710Z,11.84
2022-09-10T19:13:38.375Z,11.80
2022-09-10T19:16:42.312Z,11.76
2022-09-10T19:19:45.553Z,11.90
2022-09-10T19:22:49.597Z,11.87
2022-09-10T19:25:54.797Z,11.93
2022-09-10T19:29:00.337Z,11.92
2022-09-10T19:32:04.315Z,11.55
2022-09-10T19:35:08.665Z,11.48
2022-09-10T19:38:36.145Z,11.46
2022-09-10T19:41:42.573Z,11.50
2022-09-10T19:44:46.038Z,11.41
2022-09-10T19:47:49.640Z,11.26
2022-09-10T19:50:53.458Z,11.33
2022-09-10T19:53:57.888Z,11.28
2022-09-10T19:57:01.075Z,11.26
2022-09-10T20:00:05.234Z,11.25
2022-09-10T20:03:15.346Z,11.21
2022-09-10T20:06:21.575Z,11.22
2022-09-10T20:09:24.906Z,11.14
2022-09-10T20:12:29.306Z,11.08
2022-09-10T20:15:33.320Z,10.99
2022-09-10T20:18:37.782Z,10.97
2022-09-10T20:21:42.697Z,10.97
2022-09-10T20:24:46.691Z,10.92
2022-09-10T20:27:50.567Z,10.92
2022-09-10T20:30:54.217Z,10.96
2022-09-10T20:34:00.452Z,11.02
2022-09-10T20:37:04.510Z,11.01
2022-09-10T20:40:08.250Z,11.04
2022-09-10T20:43:13.282Z,10.99
2022-09-10T20:46:18.336Z,11.01
2022-09-10T20:49:22.500Z,10.98
2022-09-10T20:52:26.128Z,10.86
2022-09-10T20:55:30.218Z,10.33
2022-09-10T20:58:37.396Z,9.96
2022-09-10T21:01:42.549Z,9.97
2022-09-10T21:04:45.907Z,9.98
2022-09-10T21:07:51.002Z,9.86
2022-09-10T21:10:54.468Z,9.85
2022-09-10T21:14:00.940Z,9.95
2022-09-10T21:17:04.937Z,10.00
2022-09-10T21:20:09.341Z,10.06
2022-09-10T21:23:12.929Z,10.03
2022-09-10T21:26:18.628Z,10.10
2022-09-10T21:29:22.792Z,10.06
2022-09-10T21:32:26.596Z,10.03
2022-09-10T21:35:29.756Z,10.10
2022-09-10T21:38:37.143Z,10.13
2022-09-10T21:41:45.528Z,10.14
2022-09-10T21:44:49.661Z,10.10
2022-09-10T21:47:53.212Z,10.16
2022-09-10T21:51:01.332Z,10.21
2022-09-10T21:54:05.471Z,10.14
2022-09-10T21:57:12.443Z,10.20
2022-09-10T22:00:16.693Z,10.16
2022-09-10T22:03:20.847Z,10.16
2022-09-10T22:06:27.447Z,10.07
2022-09-10T22:09:32.036Z,10.13
2022-09-10T22:12:35.616Z,10.15
2022-09-10T22:15:40.958Z,10.13
2022-09-10T22:18:44.575Z,10.05
2022-09-10T22:21:48.473Z,10.13
2022-09-10T22:24:53.623Z,10.17
2022-09-10T22:27:59.344Z,9.97
2022-09-10T22:31:17.640Z,10.07
2022-09-10T22:34:22.122Z,10.08
2022-09-10T22:37:25.297Z,10.20
2022-09-10T22:40:28.760Z,10.20
2022-09-10T22:43:32.788Z,10.20
2022-09-10T22:46:37.890Z,10.10
2022-09-10T22:49:42.230Z,10.06
2022-09-10T22:52:46.418Z,10.12
2022-09-10T22:55:51.872Z,10.12
2022-09-10T22:59:00.736Z,10.24
2022-09-10T23:02:05.749Z,10.25
2022-09-10T23:05:09.449Z,10.32
2022-09-10T23:08:13.734Z,10.33
2022-09-10T23:11:20.054Z,10.39
2022-09-10T23:14:26.304Z,10.49
2022-09-10T23:17:29.976Z,10.63
2022-09-10T23:20:33.907Z,10.72
2022-09-10T23:23:37.671Z,10.78
2022-09-10T23:26:42.401Z,10.77
2022-09-10T23:29:46.262Z,10.68
2022-09-10T23:32:50.416Z,10.62
2022-09-10T23:35:53.736Z,10.51
2022-09-10T23:38:59.494Z,10.54
2022-09-10T23:42:03.591Z,10.58
2022-09-10T23:45:08.302Z,10.35
2022-09-10T23:48:11.692Z,10.21
2022-09-10T23:51:18.090Z,10.28
2022-09-10T23:54:22.130Z,10.09
2022-09-10T23:57:26.467Z,10.28
